sensor_id;sensor_type;location;lat;lon;timestamp;pressure;altitude;pressure_sealevel;temperature;humidity
1832;BME280;1680;48.106;11.708;2023-03-19T00:00:32;95172.19;;;7.27;97.68
1832;BME280;1680;48.106;11.708;2023-03-19T00:02:59;95166.47;;;7.18;98.55
1832;BME280;1680;48.106;11.708;2023-03-19T00:05:27;95174.47;;;7.17;99.13
1832;BME280;1680;48.106;11.708;2023-03-19T00:07:54;95168.88;;;7.13;98.73
1832;BME280;1680;48.106;11.708;2023-03-19T00:10:21;95178.97;;;7.03;99.29
1832;BME280;1680;48.106;11.708;2023-03-19T00:12:48;95176.47;;;7.15;98.94
1832;BME280;1680;48.106;11.708;2023-03-19T00:15:17;95170.13;;;7.04;99.88
1832;BME280;1680;48.106;11.708;2023-03-19T00:17:44;95166.91;;;7.09;99.40
1832;BME280;1680;48.106;11.708;2023-03-19T00:20:12;95171.69;;;7.12;98.66
1832;BME280;1680;48.106;11.708;2023-03-19T00:22:40;95165.31;;;7.08;98.73
1832;BME280;1680;48.106;11.708;2023-03-19T00:25:08;95167.06;;;7.14;98.89
1832;BME280;1680;48.106;11.708;2023-03-19T00:27:36;95154.69;;;7.03;98.64
1832;BME280;1680;48.106;11.708;2023-03-19T00:30:05;95174.09;;;7.13;98.43
1832;BME280;1680;48.106;11.708;2023-03-19T00:32:34;95175.34;;;7.04;98.40
1832;BME280;1680;48.106;11.708;2023-03-19T00:35:02;95187.00;;;7.02;99.21
1832;BME280;1680;48.106;11.708;2023-03-19T00:37:30;95170.94;;;7.05;98.97
1832;BME280;1680;48.106;11.708;2023-03-19T00:39:58;95184.75;;;7.05;98.51
1832;BME280;1680;48.106;11.708;2023-03-19T00:42:25;95182.59;;;7.02;98.58
1832;BME280;1680;48.106;11.708;2023-03-19T00:44:53;95189.00;;;7.00;98.32
1832;BME280;1680;48.106;11.708;2023-03-19T00:47:20;95193.06;;;6.96;98.50
1832;BME280;1680;48.106;11.708;2023-03-19T00:49:49;95190.03;;;6.92;98.52
1832;BME280;1680;48.106;11.708;2023-03-19T00:52:16;95196.28;;;6.85;98.91
1832;BME280;1680;48.106;11.708;2023-03-19T00:54:43;95206.94;;;6.83;98.62
1832;BME280;1680;48.106;11.708;2023-03-19T00:57:11;95205.16;;;6.77;98.71
1832;BME280;1680;48.106;11.708;2023-03-19T00:59:38;95202.75;;;6.76;98.64
1832;BME280;1680;48.106;11.708;2023-03-19T01:02:05;95203.94;;;6.80;98.31
1832;BME280;1680;48.106;11.708;2023-03-19T01:04:33;95198.34;;;6.76;98.48
1832;BME280;1680;48.106;11.708;2023-03-19T01:07:01;95194.78;;;6.65;98.98
1832;BME280;1680;48.106;11.708;2023-03-19T01:09:29;95197.59;;;6.63;99.25
1832;BME280;1680;48.106;11.708;2023-03-19T01:11:57;95197.19;;;6.66;98.84
1832;BME280;1680;48.106;11.708;2023-03-19T01:14:28;95212.44;;;6.56;99.17
1832;BME280;1680;48.106;11.708;2023-03-19T01:16:55;95200.28;;;6.44;100.00
1832;BME280;1680;48.106;11.708;2023-03-19T01:19:22;95200.47;;;6.42;100.00
1832;BME280;1680;48.106;11.708;2023-03-19T01:21:50;95196.66;;;6.38;100.00
1832;BME280;1680;48.106;11.708;2023-03-19T01:24:18;95206.31;;;6.31;100.00
1832;BME280;1680;48.106;11.708;2023-03-19T01:26:46;95193.34;;;6.18;100.00
1832;BME280;1680;48.106;11.708;2023-03-19T01:29:13;95203.53;;;6.20;100.00
1832;BME280;1680;48.106;11.708;2023-03-19T01:31:40;95203.72;;;6.31;100.00
1832;BME280;1680;48.106;11.708;2023-03-19T01:34:07;95196.91;;;6.30;100.00
1832;BME280;1680;48.106;11.708;2023-03-19T01:36:35;95198.09;;;6.34;100.00
1832;BME280;1680;48.106;11.708;2023-03-19T01:39:02;95195.69;;;6.26;100.00
1832;BME280;1680;48.106;11.708;2023-03-19T01:41:31;95194.69;;;6.27;100.00
1832;BME280;1680;48.106;11.708;2023-03-19T01:43:58;95201.75;;;6.14;100.00
1832;BME280;1680;48.106;11.708;2023-03-19T01:46:27;95199.72;;;6.22;100.00
1832;BME280;1680;48.106;11.708;2023-03-19T01:48:59;95200.13;;;6.26;100.00
1832;BME280;1680;48.106;11.708;2023-03-19T01:51:29;95201.75;;;6.20;100.00
1832;BME280;1680;48.106;11.708;2023-03-19T01:54:00;95190.91;;;6.23;100.00
1832;BME280;1680;48.106;11.708;2023-03-19T01:56:32;95196.09;;;6.23;100.00
1832;BME280;1680;48.106;11.708;2023-03-19T01:59:03;95193.34;;;6.18;100.00
1832;BME280;1680;48.106;11.708;2023-03-19T02:01:37;95197.53;;;6.19;100.00
1832;BME280;1680;48.106;11.708;2023-03-19T02:04:06;95203.78;;;6.05;100.00
1832;BME280;1680;48.106;11.708;2023-03-19T02:06:34;95192.34;;;6.13;100.00
1832;BME280;1680;48.106;11.708;2023-03-19T02:09:02;95196.56;;;5.94;100.00
1832;BME280;1680;48.106;11.708;2023-03-19T02:11:30;95205.19;;;5.95;100.00
1832;BME280;1680;48.106;11.708;2023-03-19T02:13:59;95209.78;;;5.99;100.00
1832;BME280;1680;48.106;11.708;2023-03-19T02:16:26;95200.16;;;6.00;100.00
1832;BME280;1680;48.106;11.708;2023-03-19T02:18:53;95218.81;;;5.90;100.00
1832;BME280;1680;48.106;11.708;2023-03-19T02:21:22;95216.19;;;5.90;100.00
1832;BME280;1680;48.106;11.708;2023-03-19T02:23:53;95215.38;;;5.90;100.00
1832;BME280;1680;48.106;11.708;2023-03-19T02:26:24;95204.56;;;5.99;100.00
1832;BME280;1680;48.106;11.708;2023-03-19T02:28:54;95196.34;;;6.02;100.00
1832;BME280;1680;48.106;11.708;2023-03-19T02:31:21;95187.72;;;6.02;100.00
1832;BME280;1680;48.106;11.708;2023-03-19T02:33:56;95184.94;;;6.03;100.00
1832;BME280;1680;48.106;11.708;2023-03-19T02:36:26;95195.97;;;6.05;100.00
1832;BME280;1680;48.106;11.708;2023-03-19T02:38:57;95189.16;;;5.98;100.00
1832;BME280;1680;48.106;11.708;2023-03-19T02:41:29;95198.16;;;5.95;100.00
1832;BME280;1680;48.106;11.708;2023-03-19T02:43:59;95209.38;;;5.89;100.00
1832;BME280;1680;48.106;11.708;2023-03-19T02:46:29;95206.78;;;5.83;100.00
1832;BME280;1680;48.106;11.708;2023-03-19T02:48:56;95211.97;;;6.02;100.00
1832;BME280;1680;48.106;11.708;2023-03-19T02:51:23;95215.78;;;5.87;100.00
1832;BME280;1680;48.106;11.708;2023-03-19T02:53:50;95210.56;;;5.68;100.00
1832;BME280;1680;48.106;11.708;2023-03-19T02:56:18;95216.16;;;5.65;100.00
1832;BME280;1680;48.106;11.708;2023-03-19T02:58:46;95217.16;;;5.64;100.00
1832;BME280;1680;48.106;11.708;2023-03-19T03:01:14;95225.38;;;5.61;100.00
1832;BME280;1680;48.106;11.708;2023-03-19T03:03:42;95226.94;;;5.49;100.00
1832;BME280;1680;48.106;11.708;2023-03-19T03:06:09;95215.75;;;5.55;100.00
1832;BME280;1680;48.106;11.708;2023-03-19T03:08:36;95213.34;;;5.47;100.00
1832;BME280;1680;48.106;11.708;2023-03-19T03:11:04;95213.75;;;5.44;100.00
1832;BME280;1680;48.106;11.708;2023-03-19T03:13:32;95186.16;;;5.30;100.00
1832;BME280;1680;48.106;11.708;2023-03-19T03:16:01;95225.75;;;5.58;100.00
1832;BME280;1680;48.106;11.708;2023-03-19T03:18:29;95232.75;;;5.51;100.00
1832;BME280;1680;48.106;11.708;2023-03-19T03:20:57;95239.56;;;5.52;100.00
1832;BME280;1680;48.106;11.708;2023-03-19T03:23:25;95232.56;;;5.52;100.00
1832;BME280;1680;48.106;11.708;2023-03-19T03:25:53;95232.13;;;5.49;100.00
1832;BME280;1680;48.106;11.708;2023-03-19T03:28:20;95234.56;;;5.44;100.00
1832;BME280;1680;48.106;11.708;2023-03-19T03:30:47;95228.97;;;5.47;100.00
1832;BME280;1680;48.106;11.708;2023-03-19T03:33:16;95223.16;;;5.45;100.00
1832;BME280;1680;48.106;11.708;2023-03-19T03:35:44;95229.16;;;5.52;100.00
1832;BME280;1680;48.106;11.708;2023-03-19T03:38:11;95234.94;;;5.54;100.00
1832;BME280;1680;48.106;11.708;2023-03-19T03:40:38;95224.16;;;5.44;100.00
1832;BME280;1680;48.106;11.708;2023-03-19T03:43:06;95227.53;;;5.51;100.00
1832;BME280;1680;48.106;11.708;2023-03-19T03:45:33;95226.75;;;5.50;100.00
1832;BME280;1680;48.106;11.708;2023-03-19T03:48:00;95231.75;;;5.52;100.00
1832;BME280;1680;48.106;11.708;2023-03-19T03:50:29;95230.13;;;5.38;100.00
1832;BME280;1680;48.106;11.708;2023-03-19T03:52:56;95232.72;;;5.38;100.00
1832;BME280;1680;48.106;11.708;2023-03-19T03:55:24;95224.31;;;5.23;100.00
1832;BME280;1680;48.106;11.708;2023-03-19T03:57:52;95242.91;;;5.26;100.00
1832;BME280;1680;48.106;11.708;2023-03-19T04:00:20;95254.91;;;5.27;100.00
1832;BME280;1680;48.106;11.708;2023-03-19T04:02:48;95255.13;;;5.26;100.00
1832;BME280;1680;48.106;11.708;2023-03-19T04:05:16;95252.91;;;5.29;100.00
1832;BME280;1680;48.106;11.708;2023-03-19T04:07:44;95254.13;;;5.40;100.00
1832;BME280;1680;48.106;11.708;2023-03-19T04:10:12;95246.94;;;5.42;100.00
1832;BME280;1680;48.106;11.708;2023-03-19T04:12:40;95254.16;;;5.53;100.00
1832;BME280;1680;48.106;11.708;2023-03-19T04:15:09;95233.56;;;5.45;100.00
1832;BME280;1680;48.106;11.708;2023-03-19T04:17:36;95250.16;;;5.57;100.00
1832;BME280;1680;48.106;11.708;2023-03-19T04:20:05;95254.16;;;5.53;100.00
1832;BME280;1680;48.106;11.708;2023-03-19T04:22:33;95260.34;;;5.52;100.00
1832;BME280;1680;48.106;11.708;2023-03-19T04:25:02;95269.97;;;5.51;100.00
1832;BME280;1680;48.106;11.708;2023-03-19T04:27:32;95268.16;;;5.58;100.00
1832;BME280;1680;48.106;11.708;2023-03-19T04:29:59;95259.75;;;5.63;100.00
1832;BME280;1680;48.106;11.708;2023-03-19T04:32:27;95256.56;;;5.54;100.00
1832;BME280;1680;48.106;11.708;2023-03-19T04:34:54;95262.19;;;5.58;100.00
1832;BME280;1680;48.106;11.708;2023-03-19T04:37:22;95240.53;;;5.44;100.00
1832;BME280;1680;48.106;11.708;2023-03-19T04:39:50;95260.97;;;5.60;100.00
1832;BME280;1680;48.106;11.708;2023-03-19T04:42:20;95269.16;;;5.64;100.00
1832;BME280;1680;48.106;11.708;2023-03-19T04:44:48;95241.75;;;5.55;100.00
1832;BME280;1680;48.106;11.708;2023-03-19T04:47:15;95266.56;;;5.64;100.00
1832;BME280;1680;48.106;11.708;2023-03-19T04:49:42;95278.41;;;5.72;100.00
1832;BME280;1680;48.106;11.708;2023-03-19T04:52:10;95274.59;;;5.75;100.00
1832;BME280;1680;48.106;11.708;2023-03-19T04:54:37;95269.38;;;5.69;100.00
1832;BME280;1680;48.106;11.708;2023-03-19T04:57:04;95280.19;;;5.72;100.00
1832;BME280;1680;48.106;11.708;2023-03-19T04:59:33;95275.78;;;5.72;100.00
1832;BME280;1680;48.106;11.708;2023-03-19T05:02:00;95289.63;;;5.79;100.00
1832;BME280;1680;48.106;11.708;2023-03-19T05:04:27;95285.84;;;5.82;100.00
1832;BME280;1680;48.106;11.708;2023-03-19T05:06:55;95284.63;;;5.78;100.00
1832;BME280;1680;48.106;11.708;2023-03-19T05:09:22;95276.59;;;5.73;100.00
1832;BME280;1680;48.106;11.708;2023-03-19T05:11:50;95287.38;;;5.70;100.00
1832;BME280;1680;48.106;11.708;2023-03-19T05:14:18;95281.00;;;5.72;100.00
1832;BME280;1680;48.106;11.708;2023-03-19T05:16:46;95284.25;;;5.81;100.00
1832;BME280;1680;48.106;11.708;2023-03-19T05:19:14;95297.44;;;5.79;100.00
1832;BME280;1680;48.106;11.708;2023-03-19T05:21:41;95252.94;;;5.42;100.00
1832;BME280;1680;48.106;11.708;2023-03-19T05:24:08;95315.03;;;5.77;100.00
1832;BME280;1680;48.106;11.708;2023-03-19T05:26:36;95318.41;;;5.72;100.00
1832;BME280;1680;48.106;11.708;2023-03-19T05:29:03;95310.22;;;5.74;100.00
1832;BME280;1680;48.106;11.708;2023-03-19T05:31:35;95304.25;;;5.80;100.00
1832;BME280;1680;48.106;11.708;2023-03-19T05:34:04;95290.84;;;5.83;100.00
1832;BME280;1680;48.106;11.708;2023-03-19T05:36:32;95320.28;;;6.03;100.00
1832;BME280;1680;48.106;11.708;2023-03-19T05:38:59;95325.50;;;6.03;100.00
1832;BME280;1680;48.106;11.708;2023-03-19T05:41:28;95322.06;;;6.16;100.00
1832;BME280;1680;48.106;11.708;2023-03-19T05:43:55;95330.09;;;6.14;100.00
1832;BME280;1680;48.106;11.708;2023-03-19T05:46:22;95337.50;;;6.17;100.00
1832;BME280;1680;48.106;11.708;2023-03-19T05:48:49;95347.31;;;6.28;100.00
1832;BME280;1680;48.106;11.708;2023-03-19T05:51:18;95339.31;;;6.36;100.00
1832;BME280;1680;48.106;11.708;2023-03-19T05:53:45;95347.50;;;6.46;100.00
1832;BME280;1680;48.106;11.708;2023-03-19T05:56:13;95349.50;;;6.57;100.00
1832;BME280;1680;48.106;11.708;2023-03-19T05:58:40;95349.31;;;6.65;100.00
1832;BME280;1680;48.106;11.708;2023-03-19T06:01:07;95315.44;;;6.65;100.00
1832;BME280;1680;48.106;11.708;2023-03-19T06:03:34;95345.25;;;6.95;100.00
1832;BME280;1680;48.106;11.708;2023-03-19T06:06:02;95356.78;;;7.25;100.00
1832;BME280;1680;48.106;11.708;2023-03-19T06:08:31;95362.38;;;7.28;100.00
1832;BME280;1680;48.106;11.708;2023-03-19T06:10:58;95368.94;;;7.44;100.00
1832;BME280;1680;48.106;11.708;2023-03-19T06:13:25;95368.94;;;7.44;100.00
1832;BME280;1680;48.106;11.708;2023-03-19T06:15:52;95376.09;;;7.61;100.00
1832;BME280;1680;48.106;11.708;2023-03-19T06:18:20;95380.50;;;7.61;100.00
1832;BME280;1680;48.106;11.708;2023-03-19T06:20:47;95375.00;;;7.81;100.00
1832;BME280;1680;48.106;11.708;2023-03-19T06:23:14;95379.63;;;7.79;100.00
1832;BME280;1680;48.106;11.708;2023-03-19T06:25:43;95385.63;;;7.86;100.00
1832;BME280;1680;48.106;11.708;2023-03-19T06:28:10;95384.13;;;7.97;100.00
1832;BME280;1680;48.106;11.708;2023-03-19T06:30:37;95380.72;;;7.96;100.00
1832;BME280;1680;48.106;11.708;2023-03-19T06:33:04;95392.69;;;8.10;100.00
1832;BME280;1680;48.106;11.708;2023-03-19T06:35:32;95402.34;;;8.16;100.00
1832;BME280;1680;48.106;11.708;2023-03-19T06:37:59;95401.47;;;8.22;100.00
1832;BME280;1680;48.106;11.708;2023-03-19T06:40:26;95410.69;;;8.25;100.00
1832;BME280;1680;48.106;11.708;2023-03-19T06:42:55;95409.44;;;8.34;100.00
1832;BME280;1680;48.106;11.708;2023-03-19T06:45:22;95419.03;;;8.46;100.00
1832;BME280;1680;48.106;11.708;2023-03-19T06:47:49;95411.31;;;8.51;100.00
1832;BME280;1680;48.106;11.708;2023-03-19T06:50:17;95421.72;;;8.58;100.00
1832;BME280;1680;48.106;11.708;2023-03-19T06:52:44;95415.06;;;8.86;100.00
1832;BME280;1680;48.106;11.708;2023-03-19T06:55:11;95420.63;;;8.96;100.00
1832;BME280;1680;48.106;11.708;2023-03-19T06:57:38;95418.94;;;9.01;100.00
1832;BME280;1680;48.106;11.708;2023-03-19T07:00:08;95422.97;;;9.04;100.00
1832;BME280;1680;48.106;11.708;2023-03-19T07:02:36;95429.69;;;9.18;100.00
1832;BME280;1680;48.106;11.708;2023-03-19T07:05:03;95445.59;;;9.34;99.57
1832;BME280;1680;48.106;11.708;2023-03-19T07:07:31;95440.00;;;9.31;98.31
1832;BME280;1680;48.106;11.708;2023-03-19T07:09:58;95439.13;;;9.37;98.74
1832;BME280;1680;48.106;11.708;2023-03-19T07:12:26;95452.53;;;9.47;98.84
1832;BME280;1680;48.106;11.708;2023-03-19T07:14:54;95450.00;;;9.58;97.81
1832;BME280;1680;48.106;11.708;2023-03-19T07:17:23;95457.91;;;9.69;96.69
1832;BME280;1680;48.106;11.708;2023-03-19T07:19:51;95467.00;;;9.67;97.26
1832;BME280;1680;48.106;11.708;2023-03-19T07:22:18;95476.38;;;9.57;97.40
1832;BME280;1680;48.106;11.708;2023-03-19T07:24:46;95475.94;;;9.60;98.18
1832;BME280;1680;48.106;11.708;2023-03-19T07:27:14;95483.38;;;9.63;98.04
1832;BME280;1680;48.106;11.708;2023-03-19T07:29:41;95490.00;;;9.83;97.29
1832;BME280;1680;48.106;11.708;2023-03-19T07:32:09;95490.44;;;9.98;96.28
1832;BME280;1680;48.106;11.708;2023-03-19T07:34:37;95509.44;;;9.93;97.90
1832;BME280;1680;48.106;11.708;2023-03-19T07:37:05;95502.19;;;9.89;99.68
1832;BME280;1680;48.106;11.708;2023-03-19T07:39:32;95504.63;;;9.90;100.00
1832;BME280;1680;48.106;11.708;2023-03-19T07:41:59;95505.34;;;9.97;100.00
1832;BME280;1680;48.106;11.708;2023-03-19T07:44:27;95511.38;;;9.98;100.00
1832;BME280;1680;48.106;11.708;2023-03-19T07:46:54;95513.41;;;9.96;100.00
1832;BME280;1680;48.106;11.708;2023-03-19T07:49:21;95518.47;;;10.15;99.41
1832;BME280;1680;48.106;11.708;2023-03-19T07:51:50;95510.59;;;10.15;99.75
1832;BME280;1680;48.106;11.708;2023-03-19T07:54:17;95512.78;;;10.18;99.56
1832;BME280;1680;48.106;11.708;2023-03-19T07:56:44;95496.63;;;10.03;99.62
1832;BME280;1680;48.106;11.708;2023-03-19T07:59:12;95511.91;;;10.24;99.07
1832;BME280;1680;48.106;11.708;2023-03-19T08:01:39;95521.59;;;10.24;99.29
1832;BME280;1680;48.106;11.708;2023-03-19T08:04:06;95511.78;;;10.19;99.70
1832;BME280;1680;48.106;11.708;2023-03-19T08:06:33;95511.03;;;10.30;99.51
1832;BME280;1680;48.106;11.708;2023-03-19T08:09:04;95510.41;;;10.46;98.54
1832;BME280;1680;48.106;11.708;2023-03-19T08:11:31;95511.44;;;10.74;95.71
1832;BME280;1680;48.106;11.708;2023-03-19T08:13:58;95515.28;;;10.72;96.30
1832;BME280;1680;48.106;11.708;2023-03-19T08:16:25;95512.56;;;10.67;97.68
1832;BME280;1680;48.106;11.708;2023-03-19T08:18:53;95509.97;;;10.78;98.03
1832;BME280;1680;48.106;11.708;2023-03-19T08:21:20;95517.56;;;10.68;99.46
1832;BME280;1680;48.106;11.708;2023-03-19T08:23:47;95523.66;;;10.80;98.06
1832;BME280;1680;48.106;11.708;2023-03-19T08:26:16;95506.19;;;10.74;98.51
1832;BME280;1680;48.106;11.708;2023-03-19T08:28:43;95521.88;;;10.92;96.78
1832;BME280;1680;48.106;11.708;2023-03-19T08:31:12;95509.84;;;10.73;98.69
1832;BME280;1680;48.106;11.708;2023-03-19T08:33:40;95513.44;;;10.61;99.59
1832;BME280;1680;48.106;11.708;2023-03-19T08:36:09;95512.25;;;10.86;98.61
1832;BME280;1680;48.106;11.708;2023-03-19T08:38:36;95508.03;;;10.85;98.32
1832;BME280;1680;48.106;11.708;2023-03-19T08:41:04;95499.25;;;10.80;97.78
1832;BME280;1680;48.106;11.708;2023-03-19T08:43:34;95524.59;;;10.86;98.32
1832;BME280;1680;48.106;11.708;2023-03-19T08:46:03;95525.78;;;10.72;99.35
1832;BME280;1680;48.106;11.708;2023-03-19T08:48:30;95536.38;;;10.65;99.53
1832;BME280;1680;48.106;11.708;2023-03-19T08:50:59;95539.31;;;10.58;100.00
1832;BME280;1680;48.106;11.708;2023-03-19T08:53:27;95543.13;;;10.73;100.00
1832;BME280;1680;48.106;11.708;2023-03-19T08:55:57;95549.97;;;10.74;100.00
1832;BME280;1680;48.106;11.708;2023-03-19T08:58:25;95556.84;;;10.57;100.00
1832;BME280;1680;48.106;11.708;2023-03-19T09:00:59;95546.41;;;10.68;100.00
1832;BME280;1680;48.106;11.708;2023-03-19T09:03:27;95548.94;;;10.75;100.00
1832;BME280;1680;48.106;11.708;2023-03-19T09:05:57;95548.91;;;10.93;100.00
1832;BME280;1680;48.106;11.708;2023-03-19T09:08:25;95552.53;;;10.92;100.00
1832;BME280;1680;48.106;11.708;2023-03-19T09:10:52;95564.44;;;11.06;100.00
1832;BME280;1680;48.106;11.708;2023-03-19T09:13:20;95557.53;;;11.23;99.50
1832;BME280;1680;48.106;11.708;2023-03-19T09:15:47;95550.47;;;11.35;98.79
1832;BME280;1680;48.106;11.708;2023-03-19T09:18:16;95554.03;;;11.52;96.39
1832;BME280;1680;48.106;11.708;2023-03-19T09:20:44;95558.38;;;11.46;96.76
1832;BME280;1680;48.106;11.708;2023-03-19T09:23:12;95554.88;;;11.63;95.64
1832;BME280;1680;48.106;11.708;2023-03-19T09:25:39;95565.75;;;11.67;95.89
1832;BME280;1680;48.106;11.708;2023-03-19T09:28:07;95564.69;;;11.79;94.91
1832;BME280;1680;48.106;11.708;2023-03-19T09:30:34;95564.56;;;11.97;93.13
1832;BME280;1680;48.106;11.708;2023-03-19T09:33:02;95566.31;;;12.03;93.20
1832;BME280;1680;48.106;11.708;2023-03-19T09:35:31;95566.38;;;12.20;90.08
1832;BME280;1680;48.106;11.708;2023-03-19T09:37:59;95555.41;;;12.34;88.69
1832;BME280;1680;48.106;11.708;2023-03-19T09:40:32;95560.28;;;12.31;88.71
1832;BME280;1680;48.106;11.708;2023-03-19T09:43:08;95571.31;;;12.16;90.58
1832;BME280;1680;48.106;11.708;2023-03-19T09:45:44;95573.00;;;12.22;90.82
1832;BME280;1680;48.106;11.708;2023-03-19T09:48:16;95570.03;;;12.30;89.25
1832;BME280;1680;48.106;11.708;2023-03-19T09:50:49;95584.16;;;12.52;88.22
1832;BME280;1680;48.106;11.708;2023-03-19T09:53:21;95580.19;;;12.38;87.88
1832;BME280;1680;48.106;11.708;2023-03-19T09:55:51;95584.63;;;12.49;87.24
1832;BME280;1680;48.106;11.708;2023-03-19T09:58:21;95592.84;;;12.64;85.93
1832;BME280;1680;48.106;11.708;2023-03-19T10:00:51;95579.69;;;12.53;86.85
1832;BME280;1680;48.106;11.708;2023-03-19T10:03:53;95588.88;;;12.50;87.26
1832;BME280;1680;48.106;11.708;2023-03-19T10:06:29;95582.69;;;12.84;85.50
1832;BME280;1680;48.106;11.708;2023-03-19T10:09:32;95586.44;;;12.99;84.14
1832;BME280;1680;48.106;11.708;2023-03-19T10:12:10;95575.31;;;13.09;83.25
1832;BME280;1680;48.106;11.708;2023-03-19T10:14:50;95565.41;;;13.16;82.29
1832;BME280;1680;48.106;11.708;2023-03-19T10:17:24;95567.31;;;13.04;83.36
1832;BME280;1680;48.106;11.708;2023-03-19T10:19:56;95559.00;;;13.12;84.19
1832;BME280;1680;48.106;11.708;2023-03-19T10:22:29;95564.16;;;13.35;81.92
1832;BME280;1680;48.106;11.708;2023-03-19T10:25:00;95556.81;;;13.37;81.79
1832;BME280;1680;48.106;11.708;2023-03-19T10:27:29;95555.19;;;13.19;83.79
1832;BME280;1680;48.106;11.708;2023-03-19T10:29:57;95553.78;;;13.45;82.44
1832;BME280;1680;48.106;11.708;2023-03-19T10:32:29;95554.09;;;13.64;83.15
1832;BME280;1680;48.106;11.708;2023-03-19T10:35:05;95558.47;;;13.75;81.41
1832;BME280;1680;48.106;11.708;2023-03-19T10:37:35;95562.56;;;13.83;78.77
1832;BME280;1680;48.106;11.708;2023-03-19T10:40:13;95563.66;;;14.20;77.61
1832;BME280;1680;48.106;11.708;2023-03-19T10:42:52;95561.88;;;14.25;76.41
1832;BME280;1680;48.106;11.708;2023-03-19T10:45:25;95536.94;;;14.16;74.82
1832;BME280;1680;48.106;11.708;2023-03-19T10:47:55;95566.28;;;14.20;76.31
1832;BME280;1680;48.106;11.708;2023-03-19T10:50:29;95562.28;;;14.01;75.37
1832;BME280;1680;48.106;11.708;2023-03-19T10:53:04;95559.13;;;14.15;74.51
1832;BME280;1680;48.106;11.708;2023-03-19T10:55:32;95517.91;;;13.76;74.48
1832;BME280;1680;48.106;11.708;2023-03-19T10:58:05;95556.16;;;13.79;75.45
1832;BME280;1680;48.106;11.708;2023-03-19T11:00:33;95555.28;;;13.73;76.16
1832;BME280;1680;48.106;11.708;2023-03-19T11:03:01;95555.34;;;13.95;75.33
1832;BME280;1680;48.106;11.708;2023-03-19T11:05:31;95548.91;;;14.24;74.13
1832;BME280;1680;48.106;11.708;2023-03-19T11:08:03;95553.72;;;14.10;72.64
1832;BME280;1680;48.106;11.708;2023-03-19T11:10:32;95551.63;;;13.74;75.39
1832;BME280;1680;48.106;11.708;2023-03-19T11:13:04;95547.03;;;13.86;73.30
1832;BME280;1680;48.106;11.708;2023-03-19T11:15:33;95555.50;;;13.88;74.70
1832;BME280;1680;48.106;11.708;2023-03-19T11:18:06;95544.69;;;13.68;75.21
1832;BME280;1680;48.106;11.708;2023-03-19T11:20:35;95552.84;;;13.51;76.17
1832;BME280;1680;48.106;11.708;2023-03-19T11:23:11;95556.97;;;13.79;75.17
1832;BME280;1680;48.106;11.708;2023-03-19T11:25:45;95551.38;;;13.76;74.63
1832;BME280;1680;48.106;11.708;2023-03-19T11:28:14;95555.50;;;14.21;72.46
1832;BME280;1680;48.106;11.708;2023-03-19T11:30:51;95540.94;;;14.02;70.62
1832;BME280;1680;48.106;11.708;2023-03-19T11:33:55;95537.63;;;13.90;71.51
1832;BME280;1680;48.106;11.708;2023-03-19T11:36:29;95545.44;;;14.02;70.80
1832;BME280;1680;48.106;11.708;2023-03-19T11:39:06;95541.75;;;14.19;70.99
1832;BME280;1680;48.106;11.708;2023-03-19T11:41:49;95535.50;;;14.25;70.58
1832;BME280;1680;48.106;11.708;2023-03-19T11:44:25;95520.47;;;14.26;69.64
1832;BME280;1680;48.106;11.708;2023-03-19T11:47:00;95533.16;;;14.50;69.66
1832;BME280;1680;48.106;11.708;2023-03-19T11:49:42;95536.53;;;14.46;68.41
1832;BME280;1680;48.106;11.708;2023-03-19T11:52:17;95518.88;;;14.08;69.84
1832;BME280;1680;48.106;11.708;2023-03-19T11:55:01;95513.94;;;14.33;70.40
1832;BME280;1680;48.106;11.708;2023-03-19T11:57:45;95516.09;;;14.36;69.58
1832;BME280;1680;48.106;11.708;2023-03-19T12:00:23;95519.78;;;14.14;70.46
1832;BME280;1680;48.106;11.708;2023-03-19T12:03:19;95515.34;;;14.62;69.11
1832;BME280;1680;48.106;11.708;2023-03-19T12:05:55;95518.69;;;14.74;67.19
1832;BME280;1680;48.106;11.708;2023-03-19T12:08:32;95516.19;;;14.89;66.66
1832;BME280;1680;48.106;11.708;2023-03-19T12:11:15;95484.50;;;14.89;66.38
1832;BME280;1680;48.106;11.708;2023-03-19T12:13:55;95508.63;;;14.97;66.53
1832;BME280;1680;48.106;11.708;2023-03-19T12:16:27;95497.44;;;14.64;67.29
1832;BME280;1680;48.106;11.708;2023-03-19T12:19:14;95492.28;;;14.74;65.88
1832;BME280;1680;48.106;11.708;2023-03-19T12:21:56;95502.72;;;14.64;65.76
1832;BME280;1680;48.106;11.708;2023-03-19T12:24:31;95498.25;;;14.43;67.05
1832;BME280;1680;48.106;11.708;2023-03-19T12:27:15;95503.59;;;14.48;67.96
1832;BME280;1680;48.106;11.708;2023-03-19T12:29:50;95495.94;;;14.25;67.93
1832;BME280;1680;48.106;11.708;2023-03-19T12:32:32;95489.56;;;14.69;67.19
1832;BME280;1680;48.106;11.708;2023-03-19T12:35:08;95492.56;;;15.04;65.80
1832;BME280;1680;48.106;11.708;2023-03-19T12:37:41;95486.31;;;15.15;64.25
1832;BME280;1680;48.106;11.708;2023-03-19T12:40:19;95481.09;;;14.93;65.79
1832;BME280;1680;48.106;11.708;2023-03-19T12:42:50;95484.13;;;15.07;65.62
1832;BME280;1680;48.106;11.708;2023-03-19T12:45:25;95457.47;;;15.08;65.82
1832;BME280;1680;48.106;11.708;2023-03-19T12:47:59;95468.03;;;15.35;63.13
1832;BME280;1680;48.106;11.708;2023-03-19T12:50:30;95471.28;;;15.47;63.24
1832;BME280;1680;48.106;11.708;2023-03-19T12:53:01;95476.06;;;15.50;62.52
1832;BME280;1680;48.106;11.708;2023-03-19T12:55:36;95470.78;;;15.50;62.67
1832;BME280;1680;48.106;11.708;2023-03-19T12:58:13;95461.16;;;15.07;62.36
1832;BME280;1680;48.106;11.708;2023-03-19T13:00:47;95470.78;;;15.50;62.67
1832;BME280;1680;48.106;11.708;2023-03-19T13:03:24;95460.03;;;15.66;60.88
1832;BME280;1680;48.106;11.708;2023-03-19T13:05:57;95458.09;;;15.52;60.65
1832;BME280;1680;48.106;11.708;2023-03-19T13:08:29;95466.06;;;15.56;60.85
1832;BME280;1680;48.106;11.708;2023-03-19T13:11:01;95453.44;;;15.63;61.92
1832;BME280;1680;48.106;11.708;2023-03-19T13:13:38;95450.88;;;15.83;61.68
1832;BME280;1680;48.106;11.708;2023-03-19T13:16:14;95452.94;;;16.18;60.17
1832;BME280;1680;48.106;11.708;2023-03-19T13:18:52;95446.03;;;16.22;60.24
1832;BME280;1680;48.106;11.708;2023-03-19T13:21:27;95449.44;;;16.12;59.45
1832;BME280;1680;48.106;11.708;2023-03-19T13:24:05;95458.91;;;15.98;58.90
1832;BME280;1680;48.106;11.708;2023-03-19T13:26:37;95450.56;;;15.75;59.22